Station History


Daily Summary for March 4, 2012 Units:  English    Metric   Both
« Previous Day
Next Day »
Daily Weekly Monthly Yearly Custom
  High: Low: Average:
Temperature: 79.2 °F 38.8 °F 56.3 °F
Dew Point: 48.4 °F 37.2 °F 43.4 °F
Humidity: 97% 30% 67%
Wind Speed: 4.0mph 0.0mph 2.2mph
Wind Gust: 4.0mph - -
Wind- - WSW
Pressure: 30.24 in 30.03 in -
Precipitation: 0.00 in    
Historical Graphs
 
 
Tabular Data for March 4, 2012
Time Temperature Dew Point Pressure Wind Wind Speed Wind Gust Humidity Rainfall Rate (Hourly)
00:02 45.7 °F 42.6 °F 30.24 in Calm     89% 0.00 in
00:07 45.7 °F 42.6 °F 30.24 in Calm     89% 0.00 in
00:12 45.6 °F 42.3 °F 30.24 in Calm     88% 0.00 in
00:17 45.2 °F 41.9 °F 30.24 in Calm     88% 0.00 in
00:22 44.9 °F 41.6 °F 30.24 in Calm     88% 0.00 in
00:27 44.7 °F 41.9 °F 30.24 in Calm     90% 0.00 in
00:32 44.4 °F 41.4 °F 30.24 in Calm     89% 0.00 in
00:38 44.1 °F 41.1 °F 30.24 in Calm     89% 0.00 in
00:43 43.8 °F 40.8 °F 30.24 in Calm     89% 0.00 in
00:48 43.5 °F 40.8 °F 30.24 in Calm     90% 0.00 in
00:53 43.4 °F 40.7 °F 30.24 in Calm     90% 0.00 in
00:58 43.3 °F 40.6 °F 30.23 in Calm     90% 0.00 in
01:03 43.3 °F 41.1 °F 30.23 in Calm     92% 0.00 in
01:08 43.6 °F 41.4 °F 30.23 in Calm     92% 0.00 in
01:13 43.7 °F 41.8 °F 30.23 in Calm     93% 0.00 in
01:18 43.9 °F 42.0 °F 30.23 in Calm     93% 0.00 in
01:23 43.8 °F 41.6 °F 30.23 in Calm     92% 0.00 in
01:28 43.7 °F 41.5 °F 30.23 in Calm     92% 0.00 in
01:33 43.6 °F 41.4 °F 30.23 in Calm     92% 0.00 in
01:38 43.5 °F 41.3 °F 30.22 in Calm     92% 0.00 in
01:43 43.5 °F 41.3 °F 30.22 in Calm     92% 0.00 in
01:48 43.5 °F 41.3 °F 30.22 in Calm     92% 0.00 in
01:53 43.5 °F 41.3 °F 30.22 in Calm     92% 0.00 in
01:58 43.3 °F 41.1 °F 30.22 in Calm     92% 0.00 in
02:03 43.1 °F 40.9 °F 30.22 in Calm     92% 0.00 in
02:08 43.1 °F 40.9 °F 30.22 in Calm     92% 0.00 in
02:13 43.4 °F 41.5 °F 30.21 in Calm     93% 0.00 in
02:18 43.9 °F 42.0 °F 30.22 in Calm     93% 0.00 in
02:23 43.9 °F 41.7 °F 30.21 in Calm     92% 0.00 in
02:28 43.6 °F 41.1 °F 30.21 in Calm     91% 0.00 in
02:33 43.2 °F 40.8 °F 30.21 in Calm     91% 0.00 in
02:38 42.9 °F 40.5 °F 30.21 in Calm     91% 0.00 in
02:43 42.7 °F 40.5 °F 30.20 in Calm     92% 0.00 in
02:48 42.4 °F 40.0 °F 30.20 in Calm     91% 0.00 in
02:53 42.3 °F 40.1 °F 30.20 in Calm     92% 0.00 in
02:58 42.0 °F 39.8 °F 30.20 in Calm     92% 0.00 in
03:03 42.1 °F 40.2 °F 30.20 in Calm     93% 0.00 in
03:08 42.3 °F 40.4 °F 30.20 in Calm     93% 0.00 in
03:13 42.4 °F 40.5 °F 30.20 in Calm     93% 0.00 in
03:18 42.4 °F 40.2 °F 30.20 in Calm     92% 0.00 in
03:23 42.3 °F 40.1 °F 30.20 in Calm     92% 0.00 in
03:28 42.2 °F 40.0 °F 30.20 in Calm     92% 0.00 in
03:33 42.0 °F 39.8 °F 30.20 in Calm     92% 0.00 in
03:38 41.7 °F 39.3 °F 30.20 in Calm     91% 0.00 in
03:43 41.3 °F 38.9 °F 30.20 in Calm     91% 0.00 in
03:48 41.0 °F 38.9 °F 30.20 in Calm     92% 0.00 in
03:53 41.0 °F 39.1 °F 30.20 in Calm     93% 0.00 in
03:58 41.1 °F 39.2 °F 30.20 in Calm     93% 0.00 in
04:03 41.1 °F 39.2 °F 30.20 in Calm     93% 0.00 in
04:08 40.8 °F 38.9 °F 30.20 in Calm     93% 0.00 in
04:13 40.9 °F 39.0 °F 30.20 in Calm     93% 0.00 in
04:18 40.8 °F 38.9 °F 30.20 in Calm     93% 0.00 in
04:24 40.7 °F 38.8 °F 30.20 in Calm     93% 0.00 in
04:29 40.5 °F 38.6 °F 30.20 in Calm     93% 0.00 in
04:34 40.2 °F 38.3 °F 30.20 in Calm     93% 0.00 in
04:39 39.9 °F 38.0 °F 30.21 in Calm     93% 0.00 in
04:44 39.9 °F 38.0 °F 30.21 in Calm     93% 0.00 in
04:49 39.8 °F 37.9 °F 30.21 in Calm     93% 0.00 in
04:54 39.7 °F 38.1 °F 30.21 in Calm     94% 0.00 in
04:59 39.5 °F 37.6 °F 30.21 in Calm     93% 0.00 in
05:04 39.3 °F 37.4 °F 30.21 in Calm     93% 0.00 in
05:09 39.2 °F 37.3 °F 30.21 in Calm     93% 0.00 in
05:14 39.1 °F 37.5 °F 30.21 in Calm     94% 0.00 in
05:19 39.1 °F 37.5 °F 30.21 in Calm     94% 0.00 in
05:24 39.3 °F 38.0 °F 30.21 in Calm     95% 0.00 in
05:29 39.5 °F 38.2 °F 30.21 in Calm     95% 0.00 in
05:34 39.6 °F 38.3 °F 30.21 in Calm     95% 0.00 in
05:39 39.6 °F 38.3 °F 30.22 in Calm     95% 0.00 in
05:44 39.6 °F 38.3 °F 30.22 in Calm     95% 0.00 in
05:49 39.6 °F 38.3 °F 30.21 in Calm     95% 0.00 in
05:54 39.5 °F 37.9 °F 30.22 in Calm     94% 0.00 in
05:59 39.6 °F 38.3 °F 30.22 in Calm     95% 0.00 in
06:04 39.5 °F 37.9 °F 30.22 in Calm     94% 0.00 in
06:09 39.4 °F 37.8 °F 30.22 in Calm     94% 0.00 in
06:14 39.3 °F 37.7 °F 30.22 in Calm     94% 0.00 in
06:19 39.2 °F 37.6 °F 30.22 in Calm     94% 0.00 in
06:24 39.1 °F 37.5 °F 30.22 in Calm     94% 0.00 in
06:29 39.0 °F 37.4 °F 30.22 in Calm     94% 0.00 in
06:34 38.8 °F 37.2 °F 30.22 in Calm     94% 0.00 in
06:39 38.8 °F 37.5 °F 30.22 in Calm     95% 0.00 in
06:44 38.9 °F 37.6 °F 30.22 in Calm     95% 0.00 in
06:49 39.0 °F 37.7 °F 30.22 in Calm     95% 0.00 in
06:54 39.1 °F 37.8 °F 30.22 in Calm     95% 0.00 in
06:59 39.3 °F 38.0 °F 30.22 in Calm     95% 0.00 in
07:04 39.7 °F 38.7 °F 30.22 in Calm     96% 0.00 in
07:09 40.0 °F 39.0 °F 30.23 in Calm     96% 0.00 in
07:14 40.5 °F 39.4 °F 30.23 in Calm     96% 0.00 in
07:19 41.1 °F 40.0 °F 30.23 in Calm     96% 0.00 in
07:24 41.6 °F 40.5 °F 30.23 in Calm     96% 0.00 in
07:29 42.0 °F 40.9 °F 30.23 in Calm     96% 0.00 in
07:34 42.5 °F 41.4 °F 30.23 in Calm     96% 0.00 in
07:39 43.0 °F 41.9 °F 30.23 in Calm     96% 0.00 in
07:44 43.6 °F 42.8 °F 30.23 in Calm     97% 0.00 in
07:49 44.2 °F 43.4 °F 30.23 in Calm     97% 0.00 in
07:50 44.2 °F 43.4 °F 30.23 in Calm     97% 0.00 in
07:55 45.0 °F 43.9 °F 30.23 in Calm     96% 0.00 in
08:00 45.7 °F 44.4 °F 30.23 in Calm     95% 0.00 in
08:05 46.6 °F 44.1 °F 30.23 in Calm     91% 0.00 in
08:10 47.6 °F 44.2 °F 30.23 in Calm     88% 0.00 in
08:15 48.5 °F 44.2 °F 30.23 in Calm     85% 0.00 in
08:20 49.7 °F 44.1 °F 30.23 in SW 2.3 mph 2.3 mph 81% 0.00 in
08:25 50.7 °F 44.4 °F 30.23 in SSW 1.1 mph 1.1 mph 79% 0.00 in
08:30 51.4 °F 44.8 °F 30.23 in Calm     78% 0.00 in
08:35 51.8 °F 44.8 °F 30.23 in Calm     77% 0.00 in
08:40 52.5 °F 44.8 °F 30.23 in Calm     75% 0.00 in
08:45 53.1 °F 45.4 °F 30.23 in Calm     75% 0.00 in
08:50 53.5 °F 45.4 °F 30.23 in SW 1.1 mph   74% 0.00 in
08:55 54.0 °F 45.5 °F 30.22 in Calm     73% 0.00 in
09:00 54.6 °F 45.8 °F 30.22 in Calm     72% 0.00 in
09:05 55.2 °F 45.6 °F 30.22 in SSW 1.1 mph 1.1 mph 70% 0.00 in
09:10 55.7 °F 45.7 °F 30.22 in Calm     69% 0.00 in
09:15 56.1 °F 45.7 °F 30.22 in Calm     68% 0.00 in
09:20 56.5 °F 45.7 °F 30.22 in Calm     67% 0.00 in
09:25 57.0 °F 45.7 °F 30.22 in Calm     66% 0.00 in
09:30 57.5 °F 46.2 °F 30.22 in Calm     66% 0.00 in
09:35 58.0 °F 46.7 °F 30.22 in SW 1.1 mph 1.1 mph 66% 0.00 in
09:40 58.3 °F 45.8 °F 30.21 in SW 1.1 mph   63% 0.00 in
09:41 58.3 °F 45.8 °F 30.21 in Calm     63% 0.00 in
09:53 59.4 °F 46.4 °F 30.21 in SW 1.1 mph   62% 0.00 in
09:58 59.9 °F 46.0 °F 30.21 in WSW 1.1 mph   60% 0.00 in
10:03 60.2 °F 46.3 °F 30.20 in Calm     60% 0.00 in
10:08 60.7 °F 46.3 °F 30.20 in SW 1.1 mph 1.1 mph 59% 0.00 in
10:13 61.2 °F 46.3 °F 30.20 in SW 1.1 mph   58% 0.00 in
10:18 61.4 °F 46.0 °F 30.20 in Calm     57% 0.00 in
10:23 62.2 °F 46.8 °F 30.20 in West 2.3 mph 2.3 mph 57% 0.00 in
10:28 63.0 °F 47.5 °F 30.20 in West 2.0 mph 2.0 mph 57% 0.00 in
10:33 63.5 °F 47.0 °F 30.20 in SW 1.0 mph   55% 0.00 in
10:38 64.0 °F 46.5 °F 30.19 in NW 2.3 mph   53% 0.00 in
10:43 64.6 °F 46.6 °F 30.19 in South 1.1 mph 1.1 mph 52% 0.00 in
10:48 65.0 °F 45.9 °F 30.19 in West 2.3 mph 2.3 mph 50% 0.00 in
10:53 65.4 °F 45.2 °F 30.19 in SW 2.3 mph 2.3 mph 48% 0.00 in
10:58 65.5 °F 46.9 °F 30.19 in WSW 1.1 mph 1.1 mph 51% 0.00 in
11:03 66.2 °F 47.0 °F 30.19 in West 1.1 mph 1.1 mph 50% 0.00 in
11:08 66.8 °F 46.5 °F 30.19 in West 3.5 mph 3.5 mph 48% 0.00 in
11:13 67.5 °F 46.6 °F 30.18 in West 1.1 mph 1.1 mph 47% 0.00 in
11:18 67.7 °F 48.4 °F 30.18 in NNW 2.3 mph 2.3 mph 50% 0.00 in
11:23 68.0 °F 47.0 °F 30.18 in NNW 3.5 mph 3.5 mph 47% 0.00 in
11:28 68.0 °F 46.4 °F 30.18 in NNW 2.3 mph 2.3 mph 46% 0.00 in
11:34 68.4 °F 45.6 °F 30.17 in North 2.3 mph 2.3 mph 44% 0.00 in
11:39 68.2 °F 46.0 °F 30.17 in WSW 1.1 mph 1.1 mph 45% 0.00 in
11:44 68.6 °F 47.0 °F 30.17 in Calm   0.1 mph 46% 0.00 in
11:49 69.4 °F 47.7 °F 30.16 in WSW 2.3 mph 2.3 mph 46% 0.00 in
11:54 70.2 °F 47.9 °F 30.16 in North 2.3 mph 2.3 mph 45% 0.00 in
11:59 70.5 °F 47.5 °F 30.16 in NW 2.3 mph 2.3 mph 44% 0.00 in
12:04 70.9 °F 46.7 °F 30.16 in WSW 3.5 mph 3.5 mph 42% 0.00 in
12:09 71.1 °F 47.5 °F 30.16 in WSW 2.3 mph 2.3 mph 43% 0.00 in
12:14 71.7 °F 47.4 °F 30.15 in SSW 2.3 mph 2.3 mph 42% 0.00 in
12:19 71.9 °F 46.9 °F 30.15 in WSW 2.3 mph 2.3 mph 41% 0.00 in
12:24 72.2 °F 47.2 °F 30.15 in SSW 2.3 mph 2.3 mph 41% 0.00 in
12:29 72.5 °F 46.8 °F 30.14 in WSW 2.3 mph 2.3 mph 40% 0.00 in
12:34 72.4 °F 46.7 °F 30.14 in SSW 3.5 mph 3.5 mph 40% 0.00 in
12:39 72.7 °F 46.3 °F 30.14 in West 3.5 mph 3.5 mph 39% 0.00 in
12:44 72.5 °F 46.1 °F 30.13 in NNW 2.3 mph 2.3 mph 39% 0.00 in
12:49 72.8 °F 47.1 °F 30.13 in WSW 3.5 mph 3.5 mph 40% 0.00 in
12:54 73.1 °F 47.3 °F 30.12 in SSW 2.3 mph 2.3 mph 40% 0.00 in
12:59 73.5 °F 47.0 °F 30.12 in NE 2.3 mph 2.3 mph 39% 0.00 in
13:04 73.5 °F 47.7 °F 30.12 in WNW 3.5 mph 3.5 mph 40% 0.00 in
13:09 73.8 °F 48.0 °F 30.11 in NW 2.3 mph 2.3 mph 40% 0.00 in
13:14 74.3 °F 48.4 °F 30.11 in WNW 1.1 mph 1.1 mph 40% 0.00 in
13:19 74.4 °F 47.1 °F 30.11 in North 3.5 mph 3.5 mph 38% 0.00 in
13:24 74.8 °F 46.8 °F 30.10 in NNW 3.5 mph 3.5 mph 37% 0.00 in
13:29 74.5 °F 47.2 °F 30.10 in North 2.3 mph 2.3 mph 38% 0.00 in
13:34 74.8 °F 46.1 °F 30.10 in WSW 3.5 mph 3.5 mph 36% 0.00 in
13:39 75.2 °F 46.4 °F 30.09 in NE 3.5 mph 3.5 mph 36% 0.00 in
13:44 75.8 °F 46.2 °F 30.09 in NNW 2.3 mph 2.3 mph 35% 0.00 in
13:49 76.3 °F 46.6 °F 30.09 in SW 1.1 mph 1.1 mph 35% 0.00 in
13:54 76.4 °F 45.2 °F 30.09 in NW 4.0 mph 4.0 mph 33% 0.00 in
13:59 76.5 °F 44.4 °F 30.08 in NE 1.1 mph   32% 0.00 in
14:04 76.8 °F 46.3 °F 30.08 in NNW 2.3 mph 2.3 mph 34% 0.00 in
14:09 76.9 °F 44.8 °F 30.08 in WNW 3.5 mph 3.5 mph 32% 0.00 in
14:14 77.1 °F 45.0 °F 30.08 in East 2.3 mph 2.3 mph 32% 0.00 in
14:19 77.7 °F 43.8 °F 30.08 in North 3.5 mph 3.5 mph 30% 0.00 in
14:24 77.4 °F 44.4 °F 30.07 in SSW 1.1 mph 1.1 mph 31% 0.00 in
14:29 77.9 °F 44.8 °F 30.07 in NNW 1.1 mph 1.1 mph 31% 0.00 in
14:34 78.2 °F 44.2 °F 30.07 in NNE 3.5 mph 3.5 mph 30% 0.00 in
14:39 78.3 °F 46.0 °F 30.07 in NW 2.3 mph 2.3 mph 32% 0.00 in
14:44 78.6 °F 46.3 °F 30.06 in NW 1.1 mph 1.1 mph 32% 0.00 in
14:49 79.2 °F 47.6 °F 30.06 in West 3.5 mph 3.5 mph 33% 0.00 in
14:54 78.6 °F 46.3 °F 30.06 in West 4.0 mph 4.0 mph 32% 0.00 in
14:59 78.3 °F 46.0 °F 30.06 in WSW 3.5 mph 3.5 mph 32% 0.00 in
15:04 78.5 °F 46.2 °F 30.06 in WNW 1.1 mph 1.1 mph 32% 0.00 in
15:09 78.7 °F 46.4 °F 30.05 in North 2.3 mph 2.3 mph 32% 0.00 in
15:14 78.6 °F 45.4 °F 30.05 in West 3.5 mph 3.5 mph 31% 0.00 in
15:19 77.9 °F 44.8 °F 30.05 in South 3.5 mph 3.5 mph 31% 0.00 in
15:24 77.9 °F 45.7 °F 30.05 in WNW 3.5 mph 3.5 mph 32% 0.00 in
15:29 78.1 °F 45.0 °F 30.05 in NW 1.1 mph 1.1 mph 31% 0.00 in
15:34 78.5 °F 46.2 °F 30.04 in South 3.5 mph 3.5 mph 32% 0.00 in
15:39 78.6 °F 45.4 °F 30.04 in WSW 3.5 mph 3.5 mph 31% 0.00 in
15:44 78.2 °F 45.1 °F 30.04 in SSW 2.3 mph 2.3 mph 31% 0.00 in
15:49 78.0 °F 44.9 °F 30.04 in North 3.5 mph 3.5 mph 31% 0.00 in
15:54 77.8 °F 44.7 °F 30.04 in NE 3.5 mph 3.5 mph 31% 0.00 in
15:59 78.0 °F 44.9 °F 30.03 in WNW 2.3 mph 2.3 mph 31% 0.00 in
16:04 77.7 °F 44.6 °F 30.03 in West 3.5 mph 3.5 mph 31% 0.00 in
16:09 77.7 °F 44.6 °F 30.03 in NNE 1.1 mph 1.1 mph 31% 0.00 in
16:14 77.4 °F 44.4 °F 30.03 in NW 1.1 mph 1.1 mph 31% 0.00 in
16:19 77.5 °F 44.5 °F 30.03 in WSW 1.1 mph   31% 0.00 in
16:24 77.7 °F 44.6 °F 30.03 in SW 1.1 mph 1.1 mph 31% 0.00 in
16:29 77.3 °F 43.4 °F 30.03 in West 1.1 mph 1.1 mph 30% 0.00 in
16:34 77.0 °F 44.9 °F 30.03 in NNW 3.5 mph 3.5 mph 32% 0.00 in
16:39 76.4 °F 44.4 °F 30.03 in North 2.3 mph 2.3 mph 32% 0.00 in
16:44 76.1 °F 44.1 °F 30.03 in NNW 2.3 mph 2.3 mph 32% 0.00 in
16:49 76.1 °F 44.1 °F 30.03 in NNE 1.1 mph 1.1 mph 32% 0.00 in
16:54 75.4 °F 44.3 °F 30.03 in WNW 2.3 mph 2.3 mph 33% 0.00 in
16:59 74.5 °F 44.3 °F 30.03 in NW 1.1 mph 1.1 mph 34% 0.00 in
17:05 73.7 °F 44.3 °F 30.03 in WNW 1.1 mph 1.1 mph 35% 0.00 in
17:10 73.1 °F 43.8 °F 30.03 in NW 2.3 mph 2.3 mph 35% 0.00 in
17:15 72.5 °F 44.0 °F 30.03 in NW 2.0 mph 2.0 mph 36% 0.00 in
17:20 71.9 °F 44.2 °F 30.03 in West 1.1 mph 1.1 mph 37% 0.00 in
17:25 71.4 °F 44.5 °F 30.03 in WNW 1.1 mph 1.1 mph 38% 0.00 in
17:30 71.0 °F 44.1 °F 30.03 in NNW 1.1 mph   38% 0.00 in
17:35 70.7 °F 43.8 °F 30.03 in WNW 2.3 mph   38% 0.00 in
17:40 70.3 °F 44.2 °F 30.03 in Calm     39% 0.00 in
17:45 69.9 °F 43.8 °F 30.03 in Calm     39% 0.00 in
17:50 69.3 °F 43.9 °F 30.03 in Calm     40% 0.00 in
17:55 68.7 °F 44.0 °F 30.03 in Calm     41% 0.00 in
18:00 68.0 °F 44.0 °F 30.03 in Calm     42% 0.00 in
18:05 67.4 °F 44.1 °F 30.03 in Calm     43% 0.00 in
18:10 66.7 °F 44.7 °F 30.03 in Calm     45% 0.00 in
18:15 66.0 °F 44.0 °F 30.03 in Calm     45% 0.00 in
18:20 65.3 °F 44.5 °F 30.03 in Calm     47% 0.00 in
18:25 64.7 °F 44.5 °F 30.03 in Calm     48% 0.00 in
18:30 64.0 °F 45.0 °F 30.03 in Calm     50% 0.00 in
18:35 63.2 °F 44.8 °F 30.03 in Calm     51% 0.00 in
18:36 63.2 °F 44.8 °F 30.03 in Calm     51% 0.00 in
18:41 62.5 °F 44.6 °F 30.03 in Calm     52% 0.00 in
18:46 62.2 °F 44.9 °F 30.03 in Calm     53% 0.00 in
18:51 61.8 °F 44.5 °F 30.03 in Calm     53% 0.00 in
18:56 61.1 °F 44.3 °F 30.03 in Calm     54% 0.00 in
19:01 60.6 °F 43.9 °F 30.03 in Calm     54% 0.00 in
19:06 60.5 °F 43.8 °F 30.03 in Calm     54% 0.00 in
19:11 60.1 °F 43.9 °F 30.03 in Calm     55% 0.00 in
19:16 59.6 °F 43.9 °F 30.03 in Calm     56% 0.00 in
19:21 59.0 °F 44.2 °F 30.03 in Calm     58% 0.00 in
19:26 58.6 °F 44.3 °F 30.03 in Calm     59% 0.00 in
19:31 58.2 °F 44.4 °F 30.03 in Calm     60% 0.00 in
19:36 57.9 °F 45.0 °F 30.03 in Calm     62% 0.00 in
19:41 57.3 °F 44.8 °F 30.03 in Calm     63% 0.00 in
19:46 56.8 °F 44.3 °F 30.03 in Calm     63% 0.00 in
19:51 56.3 °F 45.1 °F 30.03 in Calm     66% 0.00 in
19:56 56.0 °F 44.8 °F 30.04 in Calm     66% 0.00 in
20:01 55.7 °F 44.1 °F 30.04 in Calm     65% 0.00 in
20:06 55.3 °F 44.1 °F 30.04 in Calm     66% 0.00 in
20:11 55.0 °F 44.6 °F 30.04 in Calm     68% 0.00 in
20:16 54.7 °F 44.7 °F 30.04 in Calm     69% 0.00 in
20:21 54.3 °F 44.3 °F 30.04 in Calm     69% 0.00 in
20:26 53.9 °F 44.3 °F 30.04 in Calm     70% 0.00 in
20:31 53.6 °F 44.8 °F 30.04 in Calm     72% 0.00 in
20:37 53.3 °F 44.5 °F 30.04 in Calm     72% 0.00 in
20:42 53.0 °F 44.6 °F 30.05 in Calm     73% 0.00 in
20:47 52.8 °F 44.4 °F 30.05 in Calm     73% 0.00 in
20:52 52.5 °F 44.4 °F 30.05 in Calm     74% 0.00 in
20:57 52.3 °F 44.3 °F 30.05 in Calm     74% 0.00 in
21:00 52.1 °F 44.1 °F 30.05 in Calm     74% 0.00 in
21:02 52.0 °F 44.3 °F 30.05 in Calm     75% 0.00 in
21:07 51.8 °F 44.1 °F 30.05 in Calm     75% 0.00 in
21:12 51.6 °F 44.3 °F 30.06 in Calm     76% 0.00 in
21:17 51.4 °F 44.1 °F 30.06 in Calm     76% 0.00 in
21:22 51.3 °F 44.0 °F 30.06 in Calm     76% 0.00 in
21:27 51.1 °F 44.1 °F 30.06 in Calm     77% 0.00 in
21:32 51.0 °F 44.0 °F 30.06 in Calm     77% 0.00 in
21:37 50.9 °F 44.3 °F 30.06 in Calm     78% 0.00 in
21:42 50.9 °F 44.6 °F 30.06 in Calm     79% 0.00 in
21:47 51.1 °F 44.8 °F 30.06 in Calm     79% 0.00 in
21:52 51.2 °F 44.6 °F 30.06 in Calm     78% 0.00 in
21:57 51.2 °F 44.6 °F 30.07 in Calm     78% 0.00 in
22:02 51.2 °F 44.6 °F 30.07 in Calm     78% 0.00 in
22:07 51.3 °F 44.3 °F 30.07 in Calm     77% 0.00 in
22:12 51.2 °F 44.2 °F 30.07 in Calm     77% 0.00 in
22:17 51.0 °F 44.0 °F 30.07 in Calm     77% 0.00 in
22:22 50.8 °F 44.2 °F 30.07 in Calm     78% 0.00 in
22:27 50.6 °F 44.0 °F 30.07 in Calm     78% 0.00 in
22:33 50.3 °F 44.4 °F 30.07 in Calm     80% 0.00 in
22:38 50.2 °F 44.3 °F 30.07 in Calm     80% 0.00 in
22:43 50.2 °F 44.6 °F 30.07 in Calm     81% 0.00 in
22:48 50.4 °F 45.1 °F 30.06 in Calm     82% 0.00 in
22:53 50.7 °F 45.1 °F 30.06 in Calm     81% 0.00 in
22:58 50.8 °F 45.2 °F 30.06 in Calm     81% 0.00 in
23:03 50.7 °F 45.1 °F 30.06 in Calm     81% 0.00 in
23:08 50.5 °F 44.9 °F 30.06 in Calm     81% 0.00 in
23:13 50.4 °F 44.8 °F 30.06 in Calm     81% 0.00 in
23:18 50.3 °F 44.7 °F 30.06 in Calm     81% 0.00 in
23:23 50.2 °F 44.3 °F 30.06 in Calm     80% 0.00 in
23:28 50.1 °F 44.2 °F 30.06 in Calm     80% 0.00 in
23:33 49.8 °F 43.9 °F 30.06 in Calm     80% 0.00 in
23:38 49.6 °F 43.7 °F 30.06 in Calm     80% 0.00 in
23:43 49.3 °F 43.4 °F 30.06 in Calm     80% 0.00 in
23:48 49.0 °F 43.4 °F 30.06 in Calm     81% 0.00 in
23:53 48.7 °F 43.5 °F 30.05 in Calm     82% 0.00 in
23:58 48.5 °F 43.6 °F 30.05 in Calm     83% 0.00 in
Compliments of Weather Underground